Aérodrome :
LOGIN :

S'inscrire | Disclaimer

   EN    FR    IT 

 










Légende :    VFR   VFR Marginal   IFR   IFR Intensif   IFR Très Intensif
Visi : 
Plafond : 
>= 8 km
>= 3000ft
5 à 8 km
1000 à 3000 ft
1500m à 5 km
500 à 1000 ft
800 à 1500m
200 à 500 ft
< 800m
< 200 ft
Symboles :   Orages  Brouillard  Fortes neiges  Fortes précipitations  Vent > 20 kt
SIGMETs :   Divers  Orages  Givrage  Turbulence  Onde Orograph.  Cendres Volcan.







- Altitude de l'aérodrome : 779 ft
- Code IATA : CMF
- Voir les cartes d'approche


LFLB - Chambery / Aix-Les-Bains

DERNIER METAR :
  • 230000Z AUTO 16003KT 9999 FEW034 SCT043 BKN056 08/07 Q1026 NOSIG

METARs EXPIRÉS :
  • 222330Z AUTO VRB01KT 9999 -RA FEW033 BKN042 OVC056 08/07 Q1026 NOSIG
  • 222300Z AUTO VRB03KT 9999 BKN043 BKN050 BKN064 08/07 Q1025
  • 222230Z AUTO VRB02KT 9999 FEW035 BKN047 BKN072 07/06 Q1025
  • 222200Z AUTO 10005KT 070V150 9000 -RADZ SCT034 BKN043 BKN054 08/07 Q1025
  • 222130Z AUTO 17004KT 150V220 7000 FEW027 SCT038 BKN052 07/06 Q1025

TAF TAF LFLB
Valide du 23 à 00h jusqu'au 24 à 00h UTC


222300Z 2300/2324 VRB03KT 9999 BKN035
PROB40
TEMPO 2300/2308 6000 -RA BKN020
BECMG 2308/2310 36006KT
Pas de NOTAMs connus pour ce terrain.
2 SIGMETs publiés pour la FIR Marseille (LFMM) :
 
Turbulence forte
LFMM SIGMET 18 VALID 222300/230300 LFPW
LFMM MARSEILLE FIR/UIR SEV TURB FCST WI N4200 E00945 - N4115 E00945 - N4115 E00800 - N4015 E00800 - N4345 E00430 - N4400 E00645 SFC/FL060 MOV S 15KT NC=
Turbulence forte
LFMM SIGMET 17 VALID 222300/230300 LFPW
LFMM MARSEILLE FIR/UIR SEV TURB FCST WI N4630 E00515 - N4630 E00700 - N4400 E00700 - N4345 E00815 - N4315 E00700 FL220/320 MOV E 15KT NC=



MET'MAP, la Météo Aéronautique d'un coup d'oeil ! - Copyright ORBIFLY Décembre 2007 - Disclaimer

ORBIFLY MET'MAP TEAM :

Programmation & Développement : Alexandra Zaïnal
Conception & Développement : Baudouin d'Aumeries
Co-Programmation & Développement : Marc-Olivier Méhu
Soutien technique & logistique : Manuel Goepfert

Contact : metmap@orbifly.com




SOURCES & CREDITS :

   NOAA